Vail Mills, New York
Current Conditions -  °F | °C
As of 7:15 PM on Friday 28 Nov 2014 (Local Time) from KNY0 Reporting Station
Overcast Overcast  
Wind Chill: 10°   Ceiling: 2600
Heat Index: 21°   Visibility: 10mi
Dew Point: 14°   Wind: 10mph
Humidity: 74%   Direction: 260°W
Pressure: 30.18"   Gusts: 20mph
Location:  43.0744°N, 74.1473°W
Report Text: KNY0 290015Z AUTO 26009G17KT 10SM OVC026 M06/M10 A3018 RMK AO2 T10621101
Loading
Personal Weather Stations






























Interactive Weather Map New forecast layout! Learn more

10-Day Weather Forecast

Advertisements
Track Severe Weather on mobile